createdAt,value
2018-06-23T07:53:30.427Z,22.01
2018-06-23T07:53:55.983Z,22.06
2018-06-23T07:54:21.540Z,22.13
2018-06-23T07:54:47.137Z,22.12
2018-06-23T07:55:12.730Z,22.09
2018-06-23T07:55:38.302Z,22.1
2018-06-23T07:56:03.892Z,22.13
2018-06-23T07:56:29.536Z,22.14
2018-06-23T07:56:55.137Z,22.12
2018-06-23T07:57:20.690Z,22.17
2018-06-23T07:57:46.245Z,22.14
2018-06-23T07:58:11.865Z,22.19
2018-06-23T07:58:37.411Z,22.23
2018-06-23T07:59:03.003Z,22.29
2018-06-23T07:59:28.624Z,22.28
2018-06-23T07:59:54.310Z,22.25
2018-06-23T08:00:19.881Z,22.29
2018-06-23T08:00:45.446Z,22.22
2018-06-23T08:01:10.974Z,22.29
2018-06-23T08:01:36.626Z,22.31
2018-06-23T08:02:02.136Z,22.37
2018-06-23T08:02:27.723Z,22.38
2018-06-23T08:02:53.297Z,22.35
2018-06-23T08:04:01.242Z,22.38
2018-06-23T08:04:26.819Z,22.38
2018-06-23T08:04:52.374Z,22.38
2018-06-23T08:05:17.976Z,22.44
2018-06-23T08:05:43.569Z,22.44
2018-06-23T08:06:09.140Z,22.47
2018-06-23T08:06:34.684Z,22.54
2018-06-23T08:07:00.240Z,22.52
2018-06-23T08:07:25.769Z,22.54
2018-06-23T08:07:51.371Z,22.62
2018-06-23T08:08:16.954Z,22.57
2018-06-23T08:08:42.476Z,22.62
2018-06-23T08:09:08.023Z,22.65
2018-06-23T08:09:33.662Z,22.64
2018-06-23T08:09:59.161Z,22.6
2018-06-23T08:10:25.413Z,22.59
2018-06-23T08:10:50.397Z,22.67
2018-06-23T08:11:15.939Z,22.71
2018-06-23T08:11:41.578Z,22.69
2018-06-23T08:12:07.143Z,22.68
2018-06-23T08:12:32.692Z,22.68
2018-06-23T08:12:58.229Z,22.74
2018-06-23T08:13:24.418Z,22.75
2018-06-23T08:13:49.384Z,22.74
2018-06-23T08:14:14.959Z,22.77
2018-06-23T08:14:40.482Z,22.74
2018-06-23T08:15:06.028Z,22.75
2018-06-23T08:15:31.593Z,22.74
2018-06-23T08:15:57.146Z,22.72
2018-06-23T08:16:22.688Z,22.75
2018-06-23T08:16:48.252Z,22.78
2018-06-23T08:17:13.826Z,22.89
2018-06-23T08:17:39.352Z,22.82
2018-06-23T08:18:04.935Z,22.89
2018-06-23T08:18:30.503Z,22.89
2018-06-23T08:18:56.092Z,22.9
2018-06-23T08:19:21.677Z,22.86
2018-06-23T08:19:47.272Z,22.86
2018-06-23T08:20:12.825Z,22.83
2018-06-23T08:20:38.414Z,22.87
2018-06-23T08:21:04.009Z,22.9
2018-06-23T08:21:29.568Z,22.93
2018-06-23T08:22:38.491Z,23.01
2018-06-23T08:23:04.079Z,23.02
2018-06-23T08:23:29.669Z,23.04
2018-06-23T08:23:55.230Z,23.07
2018-06-23T08:24:20.792Z,23.09
2018-06-23T08:24:46.394Z,23.07
2018-06-23T08:25:11.966Z,23.08
2018-06-23T08:25:37.518Z,23.15
2018-06-23T08:26:03.056Z,23.12
2018-06-23T08:26:28.664Z,23.04
2018-06-23T08:26:54.181Z,23.07
2018-06-23T08:27:19.742Z,23.08
2018-06-23T08:27:45.296Z,23.05
2018-06-23T08:28:10.860Z,23.05
2018-06-23T08:28:36.413Z,23.02
2018-06-23T08:29:01.982Z,23.05
2018-06-23T08:29:27.566Z,23.08
2018-06-23T08:29:53.131Z,23.04
2018-06-23T08:30:20.931Z,23.04
2018-06-23T08:30:46.469Z,23.02
2018-06-23T08:31:12.101Z,23.04
2018-06-23T08:31:37.703Z,22.99
2018-06-23T08:32:03.267Z,22.92
2018-06-23T08:32:28.867Z,22.97
2018-06-23T08:32:54.437Z,22.87
2018-06-23T08:33:20.015Z,22.96
2018-06-23T08:33:45.555Z,22.93
2018-06-23T08:34:11.132Z,22.87
2018-06-23T08:34:36.681Z,22.9
2018-06-23T08:35:02.213Z,22.89
2018-06-23T08:35:27.800Z,22.9
2018-06-23T08:35:53.332Z,22.87
2018-06-23T08:36:18.974Z,22.89
2018-06-23T08:36:44.539Z,22.89
2018-06-23T08:37:10.173Z,22.87
2018-06-23T08:37:35.731Z,22.89
2018-06-23T08:38:02.498Z,22.86
2018-06-23T08:38:28.168Z,22.92
2018-06-23T08:38:53.734Z,22.89
2018-06-23T08:39:19.296Z,22.89
2018-06-23T08:39:44.866Z,22.82
2018-06-23T08:40:10.436Z,22.82
2018-06-23T08:40:35.998Z,22.82
2018-06-23T08:41:01.603Z,22.77
2018-06-23T08:41:27.228Z,22.77
2018-06-23T08:41:52.743Z,22.89
2018-06-23T08:42:18.332Z,22.75
2018-06-23T08:42:43.938Z,22.8
2018-06-23T08:43:09.487Z,22.74
2018-06-23T08:43:35.125Z,22.75
2018-06-23T08:44:00.700Z,22.75
2018-06-23T08:44:26.249Z,22.78
2018-06-23T08:44:51.849Z,22.77
2018-06-23T08:45:17.433Z,22.77
2018-06-23T08:45:43.022Z,22.78
2018-06-23T08:46:08.681Z,22.74
2018-06-23T08:46:34.253Z,22.74
2018-06-23T08:46:59.819Z,22.74
2018-06-23T08:47:25.362Z,22.8
2018-06-23T08:47:50.925Z,22.72
2018-06-23T08:48:16.536Z,22.74
2018-06-23T08:48:42.124Z,22.74
2018-06-23T08:49:07.670Z,22.8
2018-06-23T08:49:33.282Z,22.74
2018-06-23T08:49:58.859Z,22.72
2018-06-23T08:50:24.447Z,22.77
2018-06-23T08:50:50.019Z,22.77
2018-06-23T08:51:15.574Z,22.75
2018-06-23T08:51:41.123Z,22.75
2018-06-23T08:52:06.700Z,22.74
2018-06-23T08:52:32.226Z,22.72
2018-06-23T08:52:57.779Z,22.74
2018-06-23T08:53:23.342Z,22.71
2018-06-23T08:53:48.907Z,22.68
2018-06-23T08:54:14.485Z,22.68
2018-06-23T08:54:40.052Z,22.72
2018-06-23T08:55:05.695Z,22.65
2018-06-23T08:55:31.249Z,22.62
2018-06-23T08:55:56.799Z,22.65
2018-06-23T08:56:22.473Z,22.68
2018-06-23T08:56:48.102Z,22.75
2018-06-23T08:57:13.633Z,22.68
2018-06-23T08:57:39.217Z,22.72
2018-06-23T08:58:04.772Z,22.62
2018-06-23T08:58:30.312Z,22.65
2018-06-23T08:58:55.863Z,22.74
2018-06-23T08:59:21.448Z,22.69
2018-06-23T08:59:47.057Z,22.71
2018-06-23T09:00:12.598Z,22.71
2018-06-23T09:00:38.186Z,22.75
2018-06-23T09:01:03.765Z,22.67
2018-06-23T09:01:29.316Z,22.69
2018-06-23T09:01:55.098Z,22.65
2018-06-23T09:02:20.549Z,22.56
2018-06-23T09:02:46.220Z,22.62
2018-06-23T09:03:11.800Z,22.62
2018-06-23T09:03:37.349Z,22.67
2018-06-23T09:04:02.897Z,22.65
2018-06-23T09:04:28.537Z,22.64
2018-06-23T09:04:54.152Z,22.67
2018-06-23T09:05:19.718Z,22.64
2018-06-23T09:05:45.309Z,22.71
2018-06-23T09:06:10.871Z,22.74
2018-06-23T09:06:36.460Z,22.72
2018-06-23T09:07:02.011Z,22.62
2018-06-23T09:07:27.635Z,22.71
2018-06-23T09:07:53.231Z,22.72
2018-06-23T09:08:18.819Z,22.69
2018-06-23T09:08:44.388Z,22.72
2018-06-23T09:09:09.989Z,22.75
2018-06-23T09:09:35.603Z,22.65
2018-06-23T09:10:01.111Z,22.72
2018-06-23T09:10:26.680Z,22.59
2018-06-23T09:10:52.775Z,22.68
2018-06-23T09:11:17.802Z,22.71
2018-06-23T09:11:43.369Z,22.62
2018-06-23T09:12:08.978Z,22.68
2018-06-23T09:12:34.539Z,22.71
2018-06-23T09:13:00.190Z,22.67
2018-06-23T09:13:25.739Z,22.65
2018-06-23T09:13:51.342Z,22.64
2018-06-23T09:14:16.911Z,22.6
2018-06-23T09:14:42.483Z,22.6
2018-06-23T09:15:08.049Z,22.67
2018-06-23T09:15:33.593Z,22.68
2018-06-23T09:15:59.159Z,22.67
2018-06-23T09:16:24.820Z,22.56
2018-06-23T09:16:50.573Z,22.77
2018-06-23T09:17:16.005Z,22.56
2018-06-23T09:17:41.639Z,22.64
2018-06-23T09:18:07.235Z,22.67
2018-06-23T09:18:32.864Z,22.71
2018-06-23T09:18:58.455Z,22.74
2018-06-23T09:19:24.024Z,22.62
2018-06-23T09:19:49.641Z,22.67
2018-06-23T09:20:15.217Z,22.62
2018-06-23T09:20:40.746Z,22.67
2018-06-23T09:21:06.299Z,22.72
2018-06-23T09:21:31.860Z,22.65
2018-06-23T09:21:57.421Z,22.65
2018-06-23T09:22:23.009Z,22.64
2018-06-23T09:22:48.565Z,22.62
2018-06-23T09:23:14.136Z,22.67
2018-06-23T09:23:39.769Z,22.57
2018-06-23T09:24:05.310Z,22.65
2018-06-23T09:24:30.980Z,22.64
2018-06-23T09:24:56.499Z,22.62
2018-06-23T09:25:22.123Z,22.6
2018-06-23T09:25:47.748Z,22.65
2018-06-23T09:26:13.254Z,22.64
2018-06-23T09:26:38.814Z,22.67
2018-06-23T09:27:04.409Z,22.64
2018-06-23T09:27:30.082Z,22.65
2018-06-23T09:27:55.670Z,22.54
2018-06-23T09:28:21.302Z,22.59
2018-06-23T09:28:46.928Z,22.6
2018-06-23T09:29:12.521Z,22.57
2018-06-23T09:29:38.137Z,22.72
2018-06-23T09:30:03.766Z,22.64
2018-06-23T09:30:29.361Z,22.56
2018-06-23T09:30:54.980Z,22.67
2018-06-23T09:31:20.556Z,22.57
2018-06-23T09:31:46.095Z,22.57
2018-06-23T09:32:11.676Z,22.59
2018-06-23T09:32:37.260Z,22.65
2018-06-23T09:33:04.155Z,22.57
2018-06-23T09:33:29.723Z,22.71
2018-06-23T09:33:55.303Z,22.71
2018-06-23T09:34:20.895Z,22.65
2018-06-23T09:34:46.493Z,22.59
2018-06-23T09:35:12.066Z,22.54
2018-06-23T09:35:37.640Z,22.64
2018-06-23T09:36:03.218Z,22.64
2018-06-23T09:36:28.815Z,22.67
2018-06-23T09:36:54.344Z,22.62
2018-06-23T09:37:19.882Z,22.62
2018-06-23T09:37:45.485Z,22.65
2018-06-23T09:38:11.055Z,22.64
2018-06-23T09:38:36.639Z,22.65
2018-06-23T09:39:02.205Z,22.65
2018-06-23T09:39:27.783Z,22.68
2018-06-23T09:39:53.361Z,22.67
2018-06-23T09:40:18.938Z,22.57
2018-06-23T09:40:44.511Z,22.65
2018-06-23T09:41:10.074Z,22.62
2018-06-23T09:41:35.649Z,22.56
2018-06-23T09:42:01.189Z,22.56
2018-06-23T09:42:26.782Z,22.67
2018-06-23T09:42:52.339Z,22.56
2018-06-23T09:43:17.930Z,22.59
2018-06-23T09:43:43.491Z,22.62
2018-06-23T09:44:09.049Z,22.6
2018-06-23T09:44:34.677Z,22.64
2018-06-23T09:45:00.217Z,22.56
2018-06-23T09:45:25.825Z,22.57
2018-06-23T09:45:51.450Z,22.57
2018-06-23T09:46:16.962Z,22.62
2018-06-23T09:46:42.533Z,22.53
2018-06-23T09:47:08.117Z,22.6
2018-06-23T09:47:33.676Z,22.67
2018-06-23T09:47:59.246Z,22.62
2018-06-23T09:48:24.817Z,22.56
2018-06-23T09:48:50.417Z,22.65
2018-06-23T09:49:16.013Z,22.56
2018-06-23T09:49:41.589Z,22.56
2018-06-23T09:50:07.141Z,22.54
2018-06-23T09:50:32.719Z,22.62
2018-06-23T09:50:58.283Z,22.59
2018-06-23T09:51:23.874Z,22.57
2018-06-23T09:51:49.461Z,22.56
2018-06-23T09:52:15.040Z,22.52
2018-06-23T09:52:40.621Z,22.53
2018-06-23T09:53:06.223Z,22.44
2018-06-23T09:53:31.805Z,22.49
2018-06-23T09:53:57.413Z,22.39
2018-06-23T09:54:22.974Z,22.38
2018-06-23T09:54:48.559Z,22.37
2018-06-23T09:55:14.152Z,22.35
2018-06-23T09:55:39.737Z,22.37
2018-06-23T09:56:05.331Z,22.32
2018-06-23T09:56:30.935Z,22.27
2018-06-23T09:56:56.503Z,22.29
2018-06-23T09:57:22.069Z,22.29
2018-06-23T09:57:47.640Z,22.32
2018-06-23T09:58:13.378Z,22.28
2018-06-23T09:58:39.001Z,22.28
2018-06-23T09:59:04.592Z,22.28
2018-06-23T09:59:30.151Z,22.28
2018-06-23T09:59:55.749Z,22.31
2018-06-23T10:00:21.323Z,22.23
2018-06-23T10:00:46.891Z,22.32
2018-06-23T10:01:12.481Z,22.35
2018-06-23T10:01:38.117Z,22.31
2018-06-23T10:02:03.701Z,22.27
2018-06-23T10:02:29.379Z,22.34
2018-06-23T10:02:54.959Z,22.35
2018-06-23T10:03:20.574Z,22.29
2018-06-23T10:03:46.150Z,22.23
2018-06-23T10:04:11.751Z,22.32
2018-06-23T10:04:37.325Z,22.25
2018-06-23T10:05:02.867Z,22.34
2018-06-23T10:05:28.426Z,22.31
2018-06-23T10:05:54.023Z,22.32
2018-06-23T10:06:19.601Z,22.34
2018-06-23T10:06:45.257Z,22.38
2018-06-23T10:07:10.885Z,22.41
2018-06-23T10:07:36.430Z,22.38
2018-06-23T10:08:02.019Z,22.32
2018-06-23T10:08:27.644Z,22.35
2018-06-23T10:08:53.143Z,22.39
2018-06-23T10:09:18.821Z,22.38
2018-06-23T10:09:44.381Z,22.43
2018-06-23T10:10:09.957Z,22.41
2018-06-23T10:10:35.543Z,22.44
2018-06-23T10:11:01.125Z,22.44
2018-06-23T10:11:26.695Z,22.39
2018-06-23T10:11:52.283Z,22.41
2018-06-23T10:12:17.879Z,22.43
2018-06-23T10:12:43.447Z,22.39
2018-06-23T10:13:09.029Z,22.44
2018-06-23T10:13:34.630Z,22.43
2018-06-23T10:14:00.218Z,22.44
2018-06-23T10:14:25.793Z,22.47
2018-06-23T10:14:51.336Z,22.53
2018-06-23T10:15:16.899Z,22.47
2018-06-23T10:15:42.471Z,22.39
2018-06-23T10:16:08.047Z,22.47
2018-06-23T10:16:33.589Z,22.54
2018-06-23T10:16:59.173Z,22.54
2018-06-23T10:17:24.738Z,22.46
2018-06-23T10:17:50.333Z,22.52
2018-06-23T10:18:15.892Z,22.52
2018-06-23T10:18:41.440Z,22.47
2018-06-23T10:19:07.012Z,22.49
2018-06-23T10:19:32.577Z,22.5
2018-06-23T10:19:58.135Z,22.53
2018-06-23T10:20:23.694Z,22.49
2018-06-23T10:20:49.266Z,22.47
2018-06-23T10:21:14.862Z,22.54
2018-06-23T10:21:40.431Z,22.59
2018-06-23T10:22:05.986Z,22.56
2018-06-23T10:22:31.563Z,22.5
2018-06-23T10:22:57.144Z,22.53
2018-06-23T10:23:22.713Z,22.5
2018-06-23T10:23:48.324Z,22.49
2018-06-23T10:24:13.863Z,22.56
2018-06-23T10:24:39.464Z,22.56
2018-06-23T10:25:05.011Z,22.53
2018-06-23T10:25:30.611Z,22.56
2018-06-23T10:25:56.186Z,22.62
2018-06-23T10:26:21.742Z,22.56
2018-06-23T10:26:47.333Z,22.57
2018-06-23T10:27:12.914Z,22.54
2018-06-23T10:27:38.471Z,22.56
2018-06-23T10:28:04.018Z,22.54
2018-06-23T10:28:29.577Z,22.56
2018-06-23T10:28:55.145Z,22.62
2018-06-23T10:29:20.707Z,22.52
2018-06-23T10:29:46.316Z,22.6
2018-06-23T10:30:11.866Z,22.62
2018-06-23T10:30:37.412Z,22.6
2018-06-23T10:31:03.021Z,22.62
2018-06-23T10:31:28.585Z,22.56
2018-06-23T10:31:54.155Z,22.64
2018-06-23T10:32:19.709Z,22.59
2018-06-23T10:32:45.300Z,22.64
2018-06-23T10:33:10.878Z,22.6
2018-06-23T10:33:36.448Z,22.6
2018-06-23T10:34:02.026Z,22.64
2018-06-23T10:34:27.607Z,22.64
2018-06-23T10:34:53.193Z,22.62
2018-06-23T10:35:18.769Z,22.56
2018-06-23T10:35:44.318Z,22.56
2018-06-23T10:36:09.900Z,22.67
2018-06-23T10:36:35.463Z,22.67
2018-06-23T10:37:01.018Z,22.6
2018-06-23T10:37:26.619Z,22.68
2018-06-23T10:37:52.180Z,22.64
2018-06-23T10:38:17.779Z,22.67
2018-06-23T10:38:43.332Z,22.59
2018-06-23T10:39:08.914Z,22.59
2018-06-23T10:39:34.487Z,22.62
2018-06-23T10:40:00.110Z,22.59
2018-06-23T10:40:25.669Z,22.52
2018-06-23T10:40:51.236Z,22.62
2018-06-23T10:41:16.806Z,22.62
2018-06-23T10:41:42.391Z,22.6
2018-06-23T10:42:07.997Z,22.54
2018-06-23T10:42:33.630Z,22.67
2018-06-23T10:42:59.179Z,22.56
2018-06-23T10:43:24.794Z,22.62
2018-06-23T10:43:50.362Z,22.64
2018-06-23T10:44:15.992Z,22.64
2018-06-23T10:44:41.552Z,22.54
2018-06-23T10:45:07.121Z,22.64
2018-06-23T10:45:32.692Z,22.64
2018-06-23T10:45:58.285Z,22.62
2018-06-23T10:46:23.913Z,22.6
2018-06-23T10:46:49.503Z,22.57
2018-06-23T10:47:15.063Z,22.57
2018-06-23T10:47:40.623Z,22.62
2018-06-23T10:48:06.198Z,22.6
2018-06-23T10:48:31.763Z,22.56
2018-06-23T10:48:57.348Z,22.67
2018-06-23T10:49:22.996Z,22.65
2018-06-23T10:49:48.523Z,22.54
2018-06-23T10:50:14.117Z,22.68
2018-06-23T10:50:39.694Z,22.54
2018-06-23T10:51:05.292Z,22.67
2018-06-23T10:51:30.868Z,22.6
2018-06-23T10:51:56.428Z,22.57
2018-06-23T10:52:22.014Z,22.57
2018-06-23T10:52:47.614Z,22.67
2018-06-23T10:53:13.226Z,22.62
2018-06-23T10:53:38.797Z,22.54
2018-06-23T10:54:04.386Z,22.64
2018-06-23T10:54:30.558Z,22.65
2018-06-23T10:54:56.125Z,22.54
2018-06-23T10:55:21.716Z,22.67
2018-06-23T10:55:47.279Z,22.68
2018-06-23T10:56:12.839Z,22.62
2018-06-23T10:57:11.448Z,22.65
2018-06-23T10:57:37.006Z,22.57
2018-06-23T10:58:02.576Z,22.52
2018-06-23T10:58:28.162Z,22.64
2018-06-23T10:58:53.709Z,22.57
2018-06-23T10:59:19.286Z,22.59
2018-06-23T10:59:44.846Z,22.56
2018-06-23T11:00:10.419Z,22.57
2018-06-23T11:00:35.990Z,22.65
2018-06-23T11:01:01.592Z,22.56
2018-06-23T11:01:27.128Z,22.65
2018-06-23T11:01:52.673Z,22.6
2018-06-23T11:02:18.232Z,22.64
2018-06-23T11:02:43.769Z,22.64
2018-06-23T11:03:09.344Z,22.67
2018-06-23T11:03:34.924Z,22.65
2018-06-23T11:04:00.489Z,22.53
2018-06-23T11:04:26.042Z,22.53
2018-06-23T11:04:51.739Z,22.69
2018-06-23T11:05:17.179Z,22.67
2018-06-23T11:05:42.773Z,22.62
2018-06-23T11:06:08.358Z,22.67
2018-06-23T11:06:33.942Z,22.64
2018-06-23T11:06:59.517Z,22.64
2018-06-23T11:07:25.096Z,22.67
2018-06-23T11:07:50.678Z,22.64
2018-06-23T11:08:16.268Z,22.62
2018-06-23T11:08:41.852Z,22.64
2018-06-23T11:09:07.448Z,22.54
2018-06-23T11:09:32.976Z,22.67
2018-06-23T11:09:58.594Z,22.6
2018-06-23T11:10:24.164Z,22.6
2018-06-23T11:10:49.751Z,22.64
2018-06-23T11:11:15.353Z,22.67
2018-06-23T11:11:40.939Z,22.53
2018-06-23T11:12:06.495Z,22.68
2018-06-23T11:12:59.993Z,22.72
2018-06-23T11:13:25.612Z,22.68
2018-06-23T11:13:51.302Z,22.68
2018-06-23T11:14:16.878Z,22.6
2018-06-23T11:14:42.427Z,22.6
2018-06-23T11:15:08.006Z,22.67
2018-06-23T11:15:33.560Z,22.67
2018-06-23T11:15:59.127Z,22.67
2018-06-23T11:16:24.700Z,22.59
2018-06-23T11:16:50.325Z,22.75
2018-06-23T11:17:15.948Z,22.68
2018-06-23T11:17:41.542Z,22.71
2018-06-23T11:18:07.150Z,22.69
2018-06-23T11:18:32.765Z,22.69
2018-06-23T11:18:58.393Z,22.67
2018-06-23T11:19:24.020Z,22.59
2018-06-23T11:19:49.653Z,22.67
2018-06-23T11:20:15.248Z,22.65
2018-06-23T11:20:40.817Z,22.62
2018-06-23T11:21:06.413Z,22.65
2018-06-23T11:21:32.003Z,22.67
2018-06-23T11:21:57.559Z,22.64
2018-06-23T11:22:23.140Z,22.65
2018-06-23T11:22:48.726Z,22.72
2018-06-23T11:23:14.342Z,22.68
2018-06-23T11:23:39.916Z,22.67
2018-06-23T11:24:05.509Z,22.67
2018-06-23T11:24:31.244Z,22.72
2018-06-23T11:24:56.738Z,22.65
2018-06-23T11:25:22.325Z,22.65
2018-06-23T11:25:47.929Z,22.65
2018-06-23T11:26:13.491Z,22.59
2018-06-23T11:26:39.058Z,22.6
2018-06-23T11:27:04.642Z,22.59
2018-06-23T11:27:30.226Z,22.65
2018-06-23T11:27:55.815Z,22.67
2018-06-23T11:28:21.391Z,22.56
2018-06-23T11:28:46.952Z,22.67
2018-06-23T11:29:12.552Z,22.65
2018-06-23T11:29:38.120Z,22.65
2018-06-23T11:30:03.688Z,22.6
2018-06-23T11:30:29.246Z,22.74
2018-06-23T11:30:54.818Z,22.57
2018-06-23T11:31:20.409Z,22.59
2018-06-23T11:31:45.977Z,22.72
2018-06-23T11:32:11.615Z,22.59
2018-06-23T11:32:37.142Z,22.65
2018-06-23T11:33:02.710Z,22.67
2018-06-23T11:33:28.281Z,22.67
2018-06-23T11:33:53.836Z,22.6
2018-06-23T11:34:19.416Z,22.64
2018-06-23T11:34:44.989Z,22.71
2018-06-23T11:35:10.562Z,22.65
2018-06-23T11:35:36.149Z,22.54
2018-06-23T11:36:01.750Z,22.67
2018-06-23T11:36:27.322Z,22.65
2018-06-23T11:36:52.908Z,22.65
2018-06-23T11:37:18.476Z,22.68
2018-06-23T11:37:44.050Z,22.65
2018-06-23T11:38:09.614Z,22.71
2018-06-23T11:38:35.186Z,22.65
2018-06-23T11:39:00.757Z,22.65
2018-06-23T11:39:26.333Z,22.64
2018-06-23T11:39:51.912Z,22.62
2018-06-23T11:40:17.563Z,22.72
2018-06-23T11:40:43.133Z,22.64
2018-06-23T11:41:08.717Z,22.67
2018-06-23T11:41:34.297Z,22.69
2018-06-23T11:41:59.891Z,22.72
2018-06-23T11:42:25.531Z,22.68
2018-06-23T11:42:51.118Z,22.56
2018-06-23T11:43:16.685Z,22.64
2018-06-23T11:43:42.266Z,22.71
2018-06-23T11:44:07.849Z,22.69
2018-06-23T11:44:33.394Z,22.62
2018-06-23T11:44:58.988Z,22.56
2018-06-23T11:45:24.558Z,22.64
2018-06-23T11:45:50.150Z,22.64
2018-06-23T11:46:15.712Z,22.67
2018-06-23T11:46:41.392Z,22.65
2018-06-23T11:47:06.836Z,22.65
2018-06-23T11:47:32.413Z,22.67
2018-06-23T11:47:58.061Z,22.67
2018-06-23T11:48:23.648Z,22.59
2018-06-23T11:48:49.217Z,22.72
2018-06-23T11:49:14.787Z,22.69
2018-06-23T11:49:40.411Z,22.68
2018-06-23T11:50:06.006Z,22.67
2018-06-23T11:50:31.553Z,22.67
2018-06-23T11:50:57.130Z,22.68
2018-06-23T11:51:22.709Z,22.6
2018-06-23T11:51:48.272Z,22.62
2018-06-23T11:52:13.962Z,22.67
2018-06-23T11:52:39.429Z,22.59
2018-06-23T11:53:05.076Z,22.67
2018-06-23T11:53:30.607Z,22.6
2018-06-23T11:53:56.194Z,22.62
2018-06-23T11:54:21.774Z,22.54
2018-06-23T11:54:47.343Z,22.74
2018-06-23T11:55:12.929Z,22.65
2018-06-23T11:55:38.502Z,22.6
2018-06-23T11:56:04.055Z,22.67
2018-06-23T11:56:29.646Z,22.54
2018-06-23T11:56:55.227Z,22.54
2018-06-23T11:57:20.770Z,22.53
2018-06-23T11:57:46.333Z,22.57
2018-06-23T11:58:11.919Z,22.56
2018-06-23T11:58:37.477Z,22.53
2018-06-23T11:59:03.098Z,22.53
2018-06-23T11:59:28.662Z,22.59
2018-06-23T11:59:54.250Z,22.54
2018-06-23T12:00:19.809Z,22.54
2018-06-23T12:00:45.387Z,22.56
2018-06-23T12:01:10.955Z,22.52
2018-06-23T12:01:36.538Z,22.49
2018-06-23T12:02:02.142Z,22.53
2018-06-23T12:02:27.702Z,22.46
2018-06-23T12:02:53.279Z,22.54
2018-06-23T12:03:18.839Z,22.49
2018-06-23T12:03:44.392Z,22.49
2018-06-23T12:04:09.976Z,22.46
2018-06-23T12:04:35.521Z,22.44
2018-06-23T12:05:01.092Z,22.46
2018-06-23T12:05:26.725Z,22.47
2018-06-23T12:05:52.332Z,22.53
2018-06-23T12:06:17.908Z,22.52
2018-06-23T12:06:43.491Z,22.53
2018-06-23T12:07:09.078Z,22.52
2018-06-23T12:07:34.631Z,22.57
2018-06-23T12:08:00.185Z,22.54
2018-06-23T12:08:25.753Z,22.54
2018-06-23T12:08:51.319Z,22.52
2018-06-23T12:09:16.939Z,22.44
2018-06-23T12:09:42.477Z,22.46
2018-06-23T12:10:08.022Z,22.52
2018-06-23T12:10:33.600Z,22.47
2018-06-23T12:10:59.180Z,22.47
2018-06-23T12:11:24.743Z,22.47
2018-06-23T12:11:50.356Z,22.47
2018-06-23T12:12:15.942Z,22.44
2018-06-23T12:12:41.498Z,22.47
2018-06-23T12:13:07.119Z,22.49
2018-06-23T12:13:32.723Z,22.41
2018-06-23T12:13:58.299Z,22.49
2018-06-23T12:14:23.874Z,22.5
2018-06-23T12:14:49.452Z,22.53
2018-06-23T12:15:15.064Z,22.47
2018-06-23T12:15:40.645Z,22.46
2018-06-23T12:16:06.258Z,22.47
2018-06-23T12:16:31.798Z,22.41
2018-06-23T12:16:57.339Z,22.53
2018-06-23T12:17:22.917Z,22.47
2018-06-23T12:17:48.471Z,22.5
2018-06-23T12:18:14.027Z,22.47
2018-06-23T12:18:39.590Z,22.5
2018-06-23T12:19:05.165Z,22.5
2018-06-23T12:19:30.749Z,22.5
2018-06-23T12:19:56.308Z,22.44
2018-06-23T12:20:21.849Z,22.49
2018-06-23T12:20:47.415Z,22.46
2018-06-23T12:21:13.004Z,22.44
2018-06-23T12:21:38.565Z,22.44
2018-06-23T12:22:04.131Z,22.44
2018-06-23T12:22:29.706Z,22.43
2018-06-23T12:22:55.248Z,22.47
2018-06-23T12:23:20.840Z,22.49
2018-06-23T12:23:46.401Z,22.49
2018-06-23T12:24:11.981Z,22.5
2018-06-23T12:24:37.571Z,22.5
2018-06-23T12:25:03.153Z,22.49
2018-06-23T12:25:28.761Z,22.44
2018-06-23T12:25:54.316Z,22.46
2018-06-23T12:26:19.892Z,22.43
2018-06-23T12:26:45.464Z,22.49
2018-06-23T12:27:11.045Z,22.47
2018-06-23T12:27:36.607Z,22.47
2018-06-23T12:28:02.195Z,22.44
2018-06-23T12:28:27.777Z,22.41
2018-06-23T12:28:53.369Z,22.44
2018-06-23T12:29:18.937Z,22.43
2018-06-23T12:29:44.505Z,22.49
2018-06-23T12:30:10.100Z,22.47
2018-06-23T12:30:35.660Z,22.47
2018-06-23T12:31:01.218Z,22.52
2018-06-23T12:31:26.840Z,22.44
2018-06-23T12:31:52.432Z,22.49
2018-06-23T12:32:17.963Z,22.43
2018-06-23T12:32:43.578Z,22.49
2018-06-23T12:33:09.178Z,22.47
2018-06-23T12:33:34.730Z,22.47
2018-06-23T12:34:00.293Z,22.43
2018-06-23T12:34:25.889Z,22.46
2018-06-23T12:34:51.437Z,22.43
2018-06-23T12:35:17.038Z,22.49
2018-06-23T12:35:42.587Z,22.52
2018-06-23T12:36:08.136Z,22.5
2018-06-23T12:36:33.732Z,22.47
2018-06-23T12:36:59.303Z,22.44
2018-06-23T12:37:24.899Z,22.49
2018-06-23T12:37:50.488Z,22.44
2018-06-23T12:38:16.117Z,22.43
2018-06-23T12:38:41.694Z,22.49
2018-06-23T12:39:07.279Z,22.49
2018-06-23T12:39:32.846Z,22.44
2018-06-23T12:39:58.390Z,22.47
2018-06-23T12:40:23.970Z,22.46
2018-06-23T12:40:49.574Z,22.43
2018-06-23T12:41:15.147Z,22.47
2018-06-23T12:41:40.839Z,22.46
2018-06-23T12:42:06.348Z,22.49
2018-06-23T12:42:31.907Z,22.43
2018-06-23T12:42:57.471Z,22.47
2018-06-23T12:43:23.057Z,22.53
2018-06-23T12:43:48.663Z,22.52
2018-06-23T12:44:14.273Z,22.5
2018-06-23T12:44:39.848Z,22.46
2018-06-23T12:45:05.415Z,22.47
2018-06-23T12:45:30.999Z,22.49
2018-06-23T12:45:56.573Z,22.47
2018-06-23T12:46:22.135Z,22.46
2018-06-23T12:46:47.710Z,22.47
2018-06-23T12:47:13.306Z,22.53
2018-06-23T12:47:38.867Z,22.54
2018-06-23T12:48:04.437Z,22.5
2018-06-23T12:48:30.079Z,22.53
2018-06-23T12:48:55.617Z,22.54
2018-06-23T12:49:21.180Z,22.6
2018-06-23T12:49:46.759Z,22.59
2018-06-23T12:50:12.333Z,22.57
2018-06-23T12:50:37.907Z,22.62
2018-06-23T12:51:03.488Z,22.56
2018-06-23T12:51:29.053Z,22.6
2018-06-23T12:51:54.640Z,22.59
2018-06-23T12:52:20.216Z,22.59
2018-06-23T12:52:45.793Z,22.53
2018-06-23T12:53:11.390Z,22.59
2018-06-23T12:53:36.952Z,22.54
2018-06-23T12:54:02.563Z,22.56
2018-06-23T12:54:28.106Z,22.53
2018-06-23T12:54:53.688Z,22.64
2018-06-23T12:55:19.258Z,22.54
2018-06-23T12:55:44.851Z,22.59
2018-06-23T12:56:10.423Z,22.54
2018-06-23T12:56:36.023Z,22.64
2018-06-23T12:57:01.584Z,22.62
2018-06-23T12:57:27.158Z,22.59
2018-06-23T12:57:52.728Z,22.67
2018-06-23T12:58:18.340Z,22.56
2018-06-23T12:58:43.906Z,22.57
2018-06-23T12:59:09.518Z,22.54
2018-06-23T12:59:35.084Z,22.53
2018-06-23T13:00:00.682Z,22.64
2018-06-23T13:00:26.265Z,22.59
2018-06-23T13:00:51.847Z,22.6
2018-06-23T13:01:17.415Z,22.6
2018-06-23T13:01:43.013Z,22.53
2018-06-23T13:02:08.636Z,22.57
2018-06-23T13:02:34.225Z,22.53
2018-06-23T13:02:59.772Z,22.54
2018-06-23T13:03:25.364Z,22.56
2018-06-23T13:03:50.941Z,22.47
2018-06-23T13:04:16.532Z,22.52
2018-06-23T13:04:42.126Z,22.52
2018-06-23T13:05:08.377Z,22.47
2018-06-23T13:05:34.009Z,22.52
2018-06-23T13:05:59.616Z,22.5
2018-06-23T13:06:25.169Z,22.47
2018-06-23T13:06:50.768Z,22.46
2018-06-23T13:07:16.338Z,22.57
2018-06-23T13:07:41.909Z,22.52
2018-06-23T13:08:07.487Z,22.46
2018-06-23T13:08:33.068Z,22.49
2018-06-23T13:08:58.639Z,22.5
2018-06-23T13:09:24.230Z,22.46
2018-06-23T13:09:49.797Z,22.46
2018-06-23T13:10:15.390Z,22.41
2018-06-23T13:10:40.944Z,22.46
2018-06-23T13:11:06.519Z,22.43
2018-06-23T13:11:32.098Z,22.46
2018-06-23T13:11:57.665Z,22.44
2018-06-23T13:12:23.239Z,22.44
2018-06-23T13:12:48.842Z,22.46
2018-06-23T13:13:14.429Z,22.35
2018-06-23T13:13:40.009Z,22.39
2018-06-23T13:14:05.590Z,22.37
2018-06-23T13:14:31.194Z,22.38
2018-06-23T13:14:56.755Z,22.41
2018-06-23T13:15:22.354Z,22.39
2018-06-23T13:15:47.932Z,22.41
2018-06-23T13:16:13.556Z,22.39
2018-06-23T13:16:39.126Z,22.37
2018-06-23T13:17:04.699Z,22.39
2018-06-23T13:17:30.259Z,22.39
2018-06-23T13:17:55.835Z,22.37
2018-06-23T13:18:21.410Z,22.41
2018-06-23T13:18:46.969Z,22.37
2018-06-23T13:19:12.564Z,22.39
2018-06-23T13:19:38.153Z,22.39
2018-06-23T13:20:03.705Z,22.28
2018-06-23T13:20:29.295Z,22.31
2018-06-23T13:20:54.871Z,22.31
2018-06-23T13:21:20.450Z,22.29
2018-06-23T13:21:46.072Z,22.27
2018-06-23T13:22:11.603Z,22.32
2018-06-23T13:22:37.183Z,22.31
2018-06-23T13:23:02.752Z,22.28
2018-06-23T13:23:28.320Z,22.29
2018-06-23T13:23:53.928Z,22.25
2018-06-23T13:24:19.492Z,22.31
2018-06-23T13:24:45.077Z,22.27
2018-06-23T13:25:10.643Z,22.28
2018-06-23T13:25:36.227Z,22.27
2018-06-23T13:26:01.800Z,22.29